METAR Formatted Surface Weather Observation
Issued by NWS

Home | Current Version | Previous Version | Text Only | Print | Product List | Glossary On
Versions: 1 2 3 4 5 6 7 8 9
000
SAUS45 KPSR 301358
MTRFHU
METAR KFHU 301356Z AUTO 21004KT 10SM BKN090 23/08 A3011 RMK AO2
SLP131 T02280078 $



USA.gov is the U.S. government's official web portal to all federal, state and local government web resources and services.